Chester, CT

9:39 PM EDT on May 22, 2018 (GMT -0400)
Chester

Weather History for KSNC - February, 2014

Change the Weather History Date:

Saturday, February 22, 2014

  Actual Average (KHVN) Record (KHVN)
Temperature  
Mean Temperature 42 °F -  
Max Temperature 48 °F 39 °F 55 °F (2018)
Min Temperature 35 °F 26 °F 24 °F (2015)
Degree Days  
Heating Degree Days 24    
Moisture  
Dew Point 29 °F    
Average Humidity 65    
Maximum Humidity 100    
Minimum Humidity 34    
Precipitation  
Precipitation 0.00 in - - ()
Sea Level Pressure  
Sea Level Pressure 29.97 in    
Wind  
Wind Speed 8 mph (SW)    
Max Wind Speed 16 mph    
Max Gust Speed 26 mph    
Visibility 10 miles    
Events      
Averages and records for this station are not official NWS values.
T = Trace of Precipitation, MM = Missing Value Source: NWS Daily Summary

Daily Weather History Graph

Daily Weather History Graph

Search for Another Location

Airport or City:

Astronomy

Feb. 22, 2014 Rise Set
Actual Time 6:35 AM EST 5:32 PM EST
Civil Twilight 6:07 AM EST 6:00 PM EST
Nautical Twilight 5:35 AM EST 6:32 PM EST
Astronomical Twilight 5:03 AM EST 7:04 PM EST
Moon 12:28 AM EST (2/22) 10:39 AM EST (2/22)
Length of Visible Light 11h 53m
Length of Day
10h 57m
Waning Gibbous, 50% of the Moon is Illuminated
Feb 22
Waning Gibbous
Feb 22
Last Quarter
Mar 1
New
Mar 8
First Quarter
Mar 16
Full

Hourly Weather History & Observations

Time (EST) Temp. Windchill Dew Point Humidity Pressure Visibility Wind Dir Wind Speed Gust Speed Precip Events Conditions
12:15 AM 37.4 °F 32.8 °F 37.4 °F 100% 29.89 in 8.0 mi WSW 5.8 mph - N/A   Clear
12:35 AM 37.4 °F 32.8 °F 37.4 °F 100% 29.89 in 8.0 mi West 5.8 mph - N/A   Clear
12:55 AM 37.4 °F 32.8 °F 37.4 °F 100% 29.90 in 10.0 mi WSW 5.8 mph - N/A   Clear
1:15 AM 37.4 °F 33.8 °F 35.6 °F 93% 29.91 in 10.0 mi WSW 4.6 mph - N/A   Clear
1:35 AM 37.4 °F 33.8 °F 35.6 °F 93% 29.91 in 10.0 mi WSW 4.6 mph - N/A   Clear
1:55 AM 37.4 °F 32.8 °F 33.8 °F 87% 29.91 in 10.0 mi WSW 5.8 mph - N/A   Clear
2:15 AM 37.4 °F 33.8 °F 33.8 °F 87% 29.91 in 10.0 mi WSW 4.6 mph - N/A   Clear
2:35 AM 35.6 °F 30.7 °F 33.8 °F 93% 29.92 in 10.0 mi West 5.8 mph - N/A   Clear
2:55 AM 37.4 °F 33.8 °F 32.0 °F 81% 29.92 in 10.0 mi West 4.6 mph - N/A   Clear
3:15 AM 37.4 °F 32.1 °F 32.0 °F 81% 29.92 in 10.0 mi West 6.9 mph - N/A   Clear
3:35 AM 39.2 °F 35.0 °F 32.0 °F 75% 29.93 in 10.0 mi West 5.8 mph - N/A   Clear
3:55 AM 39.2 °F 34.2 °F 32.0 °F 75% 29.93 in 10.0 mi WSW 6.9 mph - N/A   Clear
4:15 AM 39.2 °F 34.2 °F 32.0 °F 75% 29.93 in 10.0 mi WSW 6.9 mph - N/A   Clear
4:35 AM 39.2 °F 35.0 °F 32.0 °F 75% 29.94 in 10.0 mi WSW 5.8 mph - N/A   Clear
4:55 AM 37.4 °F 32.8 °F 32.0 °F 81% 29.95 in 10.0 mi WSW 5.8 mph - N/A   Clear
5:15 AM 37.4 °F 32.8 °F 32.0 °F 81% 29.96 in 10.0 mi WSW 5.8 mph - N/A   Clear
5:35 AM 37.4 °F 32.8 °F 32.0 °F 81% 29.97 in 10.0 mi WSW 5.8 mph - N/A   Clear
5:55 AM 35.6 °F 29.2 °F 32.0 °F 87% 29.98 in 10.0 mi WSW 8.1 mph - N/A   Clear
6:15 AM 37.4 °F 30.8 °F 32.0 °F 81% 29.97 in 10.0 mi WSW 9.2 mph - N/A   Clear
6:35 AM 37.4 °F 31.4 °F 32.0 °F 81% 29.98 in 10.0 mi WSW 8.1 mph - N/A   Clear
6:55 AM 35.6 °F 28.6 °F 32.0 °F 87% 29.99 in 10.0 mi WSW 9.2 mph - N/A   Clear
7:15 AM 37.4 °F 29.8 °F 32.0 °F 81% 29.99 in 10.0 mi WSW 11.5 mph 16.1 mph N/A   Clear
7:35 AM 37.4 °F 30.3 °F 32.0 °F 81% 30.00 in 10.0 mi WSW 10.4 mph - N/A   Clear
7:55 AM 37.4 °F 30.8 °F 32.0 °F 81% 30.01 in 10.0 mi WSW 9.2 mph - N/A   Clear
8:15 AM 39.2 °F 33.6 °F 32.0 °F 75% 30.02 in 10.0 mi WSW 8.1 mph - N/A   Clear
8:35 AM 39.2 °F 35.0 °F 32.0 °F 75% 30.02 in 10.0 mi WSW 5.8 mph - N/A   Clear
8:55 AM 39.2 °F 33.0 °F 32.0 °F 75% 30.02 in 10.0 mi WSW 9.2 mph - N/A   Clear
9:15 AM 41.0 °F 36.4 °F 32.0 °F 70% 30.03 in 10.0 mi SW 6.9 mph 16.1 mph N/A   Clear
9:35 AM 42.8 °F 37.5 °F 30.2 °F 61% 30.03 in 10.0 mi West 9.2 mph - N/A   Clear
9:55 AM 42.8 °F 38.0 °F 28.4 °F 57% 30.02 in 10.0 mi SW 8.1 mph - N/A   Clear
10:15 AM 42.8 °F 38.0 °F 26.6 °F 53% 30.02 in 10.0 mi SW 8.1 mph - N/A   Clear
10:35 AM 42.8 °F 37.0 °F 26.6 °F 53% 30.02 in 10.0 mi SW 10.4 mph 16.1 mph N/A   Clear
10:55 AM 44.6 °F 39.2 °F 26.6 °F 49% 30.02 in 10.0 mi SSW 10.4 mph - N/A   Clear
11:15 AM 44.6 °F 38.8 °F 24.8 °F 46% 30.01 in 10.0 mi SW 11.5 mph - N/A   Clear
11:35 AM 44.6 °F 39.7 °F 23.0 °F 43% 30.01 in 10.0 mi SW 9.2 mph - N/A   Clear
11:55 AM 44.6 °F 39.2 °F 21.2 °F 39% 30.00 in 9.0 mi SW 10.4 mph 18.4 mph N/A   Clear
12:15 PM 44.6 °F 40.2 °F 21.2 °F 39% 29.99 in 10.0 mi SW 8.1 mph 20.7 mph N/A   Clear
12:35 PM 46.4 °F 39.8 °F 23.0 °F 40% 29.98 in 10.0 mi SW 16.1 mph 20.7 mph N/A   Clear
12:55 PM 46.4 °F 40.1 °F 23.0 °F 40% 29.97 in 10.0 mi SSW 15.0 mph 21.9 mph N/A   Clear
1:15 PM 46.4 °F 41.1 °F 23.0 °F 40% 29.96 in 10.0 mi SW 11.5 mph - N/A   Clear
1:35 PM 48.2 °F - 21.2 °F 34% 29.95 in 10.0 mi SW 15.0 mph 26.5 mph N/A   Clear
1:55 PM 48.2 °F - 21.2 °F 34% 29.94 in 10.0 mi SW 11.5 mph 21.9 mph N/A   Clear
2:15 PM 48.2 °F - 21.2 °F 34% 29.94 in 10.0 mi SW 13.8 mph 19.6 mph N/A   Clear
2:35 PM 48.2 °F - 21.2 °F 34% 29.94 in 10.0 mi SW 11.5 mph 25.3 mph N/A   Clear
2:55 PM 48.2 °F - 23.0 °F 37% 29.93 in 10.0 mi SW 15.0 mph 25.3 mph N/A   Clear
3:15 PM 48.2 °F - 23.0 °F 37% 29.94 in 10.0 mi SSW 12.7 mph 21.9 mph N/A   Clear
3:35 PM 46.4 °F 40.4 °F 24.8 °F 43% 29.94 in 10.0 mi SSW 13.8 mph 23.0 mph N/A   Clear
3:55 PM 46.4 °F 41.5 °F 26.6 °F 46% 29.94 in 10.0 mi SSW 10.4 mph 23.0 mph N/A   Clear
4:15 PM 46.4 °F 40.7 °F 26.6 °F 46% 29.94 in 10.0 mi SSW 12.7 mph 21.9 mph N/A   Clear
4:35 PM 46.4 °F 41.5 °F 26.6 °F 46% 29.94 in 10.0 mi SSW 10.4 mph 19.6 mph N/A   Clear
4:55 PM 44.6 °F 39.2 °F 26.6 °F 49% 29.95 in 10.0 mi SW 10.4 mph 17.3 mph N/A   Clear
5:15 PM 44.6 °F 39.2 °F 26.6 °F 49% 29.95 in 10.0 mi SSW 10.4 mph - N/A   Clear
5:35 PM 42.8 °F 39.3 °F 28.4 °F 57% 29.95 in 10.0 mi SSW 5.8 mph 17.3 mph N/A   Clear
5:55 PM 42.8 °F 37.0 °F 28.4 °F 57% 29.95 in 10.0 mi SSW 10.4 mph - N/A   Clear
6:15 PM 42.8 °F 38.0 °F 28.4 °F 57% 29.96 in 10.0 mi SW 8.1 mph - N/A   Clear
6:35 PM 42.8 °F 37.5 °F 28.4 °F 57% 29.97 in 10.0 mi SW 9.2 mph - N/A   Clear
6:55 PM 41.0 °F 35.8 °F 28.4 °F 61% 29.97 in 10.0 mi SW 8.1 mph - N/A   Clear
7:15 PM 41.0 °F 37.1 °F 28.4 °F 61% 29.97 in 10.0 mi SW 5.8 mph - N/A   Clear
7:35 PM 41.0 °F 37.1 °F 28.4 °F 61% 29.97 in 10.0 mi SW 5.8 mph - N/A   Clear
7:55 PM 39.2 °F 32.5 °F 28.4 °F 65% 29.98 in 10.0 mi SW 10.4 mph 16.1 mph N/A   Clear
8:15 PM 39.2 °F 33.6 °F 28.4 °F 65% 29.98 in 10.0 mi SW 8.1 mph - N/A   Clear
8:35 PM 39.2 °F 35.0 °F 28.4 °F 65% 29.99 in 10.0 mi SW 5.8 mph - N/A   Clear
8:55 PM 39.2 °F 35.9 °F 28.4 °F 65% 29.99 in 10.0 mi SW 4.6 mph - N/A   Clear
9:15 PM 39.2 °F 35.0 °F 28.4 °F 65% 30.00 in 10.0 mi SW 5.8 mph - N/A   Clear
9:35 PM 39.2 °F 33.0 °F 28.4 °F 65% 30.01 in 10.0 mi SW 9.2 mph - N/A   Clear
9:55 PM 39.2 °F 33.6 °F 28.4 °F 65% 30.00 in 10.0 mi SW 8.1 mph - N/A   Clear
10:15 PM 41.0 °F 36.4 °F 28.4 °F 61% 30.01 in 10.0 mi WSW 6.9 mph - N/A   Clear
10:35 PM 39.2 °F 33.6 °F 28.4 °F 65% 30.01 in 10.0 mi SW 8.1 mph - N/A   Clear
10:55 PM 39.2 °F 34.2 °F 30.2 °F 70% 30.01 in 10.0 mi SW 6.9 mph - N/A   Clear
11:15 PM 39.2 °F 35.0 °F 30.2 °F 70% 30.01 in 10.0 mi WSW 5.8 mph - N/A   Clear
11:35 PM 41.0 °F 37.1 °F 30.2 °F 65% 30.01 in 10.0 mi SW 5.8 mph - N/A   Clear
11:55 PM 39.2 °F 35.0 °F 30.2 °F 70% 30.01 in 10.0 mi WSW 5.8 mph - N/A   Clear